sensor_id;sensor_type;location;lat;lon;timestamp;temperature;humidity
26745;DHT22;14342;50.960;13.880;2024-01-10T00:00:17;-6.90;99.90
26745;DHT22;14342;50.960;13.880;2024-01-10T00:01:17;-6.90;99.90
26745;DHT22;14342;50.960;13.880;2024-01-10T00:02:20;-7.00;99.90
26745;DHT22;14342;50.960;13.880;2024-01-10T00:03:21;-7.00;99.90
26745;DHT22;14342;50.960;13.880;2024-01-10T00:04:23;-7.00;99.90
26745;DHT22;14342;50.960;13.880;2024-01-10T00:05:23;-7.00;99.90
26745;DHT22;14342;50.960;13.880;2024-01-10T00:06:25;-7.30;99.90
26745;DHT22;14342;50.960;13.880;2024-01-10T00:07:25;-6.90;99.90
26745;DHT22;14342;50.960;13.880;2024-01-10T00:08:27;-6.90;99.90
26745;DHT22;14342;50.960;13.880;2024-01-10T00:09:28;-6.90;99.90
26745;DHT22;14342;50.960;13.880;2024-01-10T00:10:29;-6.80;99.90
26745;DHT22;14342;50.960;13.880;2024-01-10T00:11:30;-6.90;99.90
26745;DHT22;14342;50.960;13.880;2024-01-10T00:12:31;-6.90;99.90
26745;DHT22;14342;50.960;13.880;2024-01-10T00:13:36;-6.80;99.90
26745;DHT22;14342;50.960;13.880;2024-01-10T00:14:37;-7.00;99.90
26745;DHT22;14342;50.960;13.880;2024-01-10T00:15:38;-7.00;99.90
26745;DHT22;14342;50.960;13.880;2024-01-10T00:16:40;-7.10;99.90
26745;DHT22;14342;50.960;13.880;2024-01-10T00:17:42;-7.10;99.90
26745;DHT22;14342;50.960;13.880;2024-01-10T00:18:43;-7.10;99.90
26745;DHT22;14342;50.960;13.880;2024-01-10T00:19:44;-7.00;99.90
26745;DHT22;14342;50.960;13.880;2024-01-10T00:20:44;-7.10;99.90
26745;DHT22;14342;50.960;13.880;2024-01-10T00:21:46;-7.10;99.90
26745;DHT22;14342;50.960;13.880;2024-01-10T00:22:46;-7.20;99.90
26745;DHT22;14342;50.960;13.880;2024-01-10T00:23:48;-7.10;99.90
26745;DHT22;14342;50.960;13.880;2024-01-10T00:24:49;-7.10;99.90
26745;DHT22;14342;50.960;13.880;2024-01-10T00:25:51;-7.10;99.90
26745;DHT22;14342;50.960;13.880;2024-01-10T00:26:51;-7.10;99.90
26745;DHT22;14342;50.960;13.880;2024-01-10T00:27:52;-7.10;99.90
26745;DHT22;14342;50.960;13.880;2024-01-10T00:28:54;-7.10;99.90
26745;DHT22;14342;50.960;13.880;2024-01-10T00:29:54;-7.10;99.90
26745;DHT22;14342;50.960;13.880;2024-01-10T00:30:57;-7.00;99.90
26745;DHT22;14342;50.960;13.880;2024-01-10T00:31:58;-6.90;99.90
26745;DHT22;14342;50.960;13.880;2024-01-10T00:33:01;-6.90;99.90
26745;DHT22;14342;50.960;13.880;2024-01-10T00:34:02;-6.70;99.90
26745;DHT22;14342;50.960;13.880;2024-01-10T00:35:03;-6.80;99.90
26745;DHT22;14342;50.960;13.880;2024-01-10T00:36:04;-6.80;99.90
26745;DHT22;14342;50.960;13.880;2024-01-10T00:37:06;-6.70;99.90
26745;DHT22;14342;50.960;13.880;2024-01-10T00:38:07;-6.80;99.90
26745;DHT22;14342;50.960;13.880;2024-01-10T00:39:08;-6.70;99.90
26745;DHT22;14342;50.960;13.880;2024-01-10T00:40:09;-6.80;99.90
26745;DHT22;14342;50.960;13.880;2024-01-10T00:41:11;-6.80;99.90
26745;DHT22;14342;50.960;13.880;2024-01-10T00:42:12;-6.90;99.90
26745;DHT22;14342;50.960;13.880;2024-01-10T00:43:14;-6.90;99.90
26745;DHT22;14342;50.960;13.880;2024-01-10T00:44:14;-6.90;99.90
26745;DHT22;14342;50.960;13.880;2024-01-10T00:45:16;-6.90;99.90
26745;DHT22;14342;50.960;13.880;2024-01-10T00:46:17;-6.90;99.90
26745;DHT22;14342;50.960;13.880;2024-01-10T00:47:18;-6.90;99.90
26745;DHT22;14342;50.960;13.880;2024-01-10T00:48:20;-6.80;99.90
26745;DHT22;14342;50.960;13.880;2024-01-10T00:49:22;-6.80;99.90
26745;DHT22;14342;50.960;13.880;2024-01-10T00:50:22;-6.90;99.90
26745;DHT22;14342;50.960;13.880;2024-01-10T00:51:24;-6.90;99.90
26745;DHT22;14342;50.960;13.880;2024-01-10T00:52:24;-6.90;99.90
26745;DHT22;14342;50.960;13.880;2024-01-10T00:53:26;-6.90;99.90
26745;DHT22;14342;50.960;13.880;2024-01-10T00:54:27;-6.70;99.90
26745;DHT22;14342;50.960;13.880;2024-01-10T00:55:27;-6.80;99.90
26745;DHT22;14342;50.960;13.880;2024-01-10T00:56:29;-6.50;99.90
26745;DHT22;14342;50.960;13.880;2024-01-10T00:57:29;-6.80;99.90
26745;DHT22;14342;50.960;13.880;2024-01-10T00:58:31;-6.70;99.90
26745;DHT22;14342;50.960;13.880;2024-01-10T00:59:31;-6.70;99.90
26745;DHT22;14342;50.960;13.880;2024-01-10T01:00:33;-6.80;99.90
26745;DHT22;14342;50.960;13.880;2024-01-10T01:01:33;-6.80;99.90
26745;DHT22;14342;50.960;13.880;2024-01-10T01:02:35;-6.80;99.90
26745;DHT22;14342;50.960;13.880;2024-01-10T01:03:37;-6.60;99.90
26745;DHT22;14342;50.960;13.880;2024-01-10T01:04:38;-6.80;99.90
26745;DHT22;14342;50.960;13.880;2024-01-10T01:05:39;-6.60;99.90
26745;DHT22;14342;50.960;13.880;2024-01-10T01:06:41;-6.70;99.90
26745;DHT22;14342;50.960;13.880;2024-01-10T01:07:42;-6.70;99.90
26745;DHT22;14342;50.960;13.880;2024-01-10T01:08:43;-6.70;99.90
26745;DHT22;14342;50.960;13.880;2024-01-10T01:09:44;-6.80;99.90
26745;DHT22;14342;50.960;13.880;2024-01-10T01:10:46;-6.50;99.90
26745;DHT22;14342;50.960;13.880;2024-01-10T01:11:46;-6.70;99.90
26745;DHT22;14342;50.960;13.880;2024-01-10T01:12:48;-6.70;99.90
26745;DHT22;14342;50.960;13.880;2024-01-10T01:13:48;-6.80;99.90
26745;DHT22;14342;50.960;13.880;2024-01-10T01:14:50;-6.90;99.90
26745;DHT22;14342;50.960;13.880;2024-01-10T01:15:50;-6.90;99.90
26745;DHT22;14342;50.960;13.880;2024-01-10T01:16:51;-6.90;99.90
26745;DHT22;14342;50.960;13.880;2024-01-10T01:17:53;-6.90;99.90
26745;DHT22;14342;50.960;13.880;2024-01-10T01:18:54;-6.90;99.90
26745;DHT22;14342;50.960;13.880;2024-01-10T01:19:55;-7.00;99.90
26745;DHT22;14342;50.960;13.880;2024-01-10T01:20:57;-7.00;99.90
26745;DHT22;14342;50.960;13.880;2024-01-10T01:21:58;-7.00;99.90
26745;DHT22;14342;50.960;13.880;2024-01-10T01:22:59;-7.10;99.90
26745;DHT22;14342;50.960;13.880;2024-01-10T01:24:00;-7.10;99.90
26745;DHT22;14342;50.960;13.880;2024-01-10T01:25:02;-7.10;99.90
26745;DHT22;14342;50.960;13.880;2024-01-10T01:26:03;-7.10;99.90
26745;DHT22;14342;50.960;13.880;2024-01-10T01:27:05;-7.10;99.90
26745;DHT22;14342;50.960;13.880;2024-01-10T01:28:05;-6.90;99.90
26745;DHT22;14342;50.960;13.880;2024-01-10T01:29:07;-7.00;99.90
26745;DHT22;14342;50.960;13.880;2024-01-10T01:30:09;-7.00;99.90
26745;DHT22;14342;50.960;13.880;2024-01-10T01:31:11;-7.00;99.90
26745;DHT22;14342;50.960;13.880;2024-01-10T01:32:12;-6.80;99.90
26745;DHT22;14342;50.960;13.880;2024-01-10T01:33:14;-6.90;99.90
26745;DHT22;14342;50.960;13.880;2024-01-10T01:34:16;-6.90;99.90
26745;DHT22;14342;50.960;13.880;2024-01-10T01:35:18;-6.90;99.90
26745;DHT22;14342;50.960;13.880;2024-01-10T01:36:22;-6.80;99.90
26745;DHT22;14342;50.960;13.880;2024-01-10T01:37:22;-6.80;99.90
26745;DHT22;14342;50.960;13.880;2024-01-10T01:38:24;-6.80;99.90
26745;DHT22;14342;50.960;13.880;2024-01-10T01:39:24;-6.80;99.90
26745;DHT22;14342;50.960;13.880;2024-01-10T01:40:26;-6.90;99.90
26745;DHT22;14342;50.960;13.880;2024-01-10T01:41:27;-6.80;99.90
26745;DHT22;14342;50.960;13.880;2024-01-10T01:42:28;-6.90;99.90
26745;DHT22;14342;50.960;13.880;2024-01-10T01:43:29;-6.90;99.90
26745;DHT22;14342;50.960;13.880;2024-01-10T01:44:30;-6.90;99.90
26745;DHT22;14342;50.960;13.880;2024-01-10T01:45:32;-6.80;99.90
26745;DHT22;14342;50.960;13.880;2024-01-10T01:46:33;-6.80;99.90
26745;DHT22;14342;50.960;13.880;2024-01-10T01:47:34;-6.90;99.90
26745;DHT22;14342;50.960;13.880;2024-01-10T01:48:36;-6.80;99.90
26745;DHT22;14342;50.960;13.880;2024-01-10T01:49:38;-6.80;99.90
26745;DHT22;14342;50.960;13.880;2024-01-10T01:50:40;-6.80;99.90
26745;DHT22;14342;50.960;13.880;2024-01-10T01:51:41;-6.90;99.90
26745;DHT22;14342;50.960;13.880;2024-01-10T01:52:43;-6.80;99.90
26745;DHT22;14342;50.960;13.880;2024-01-10T01:53:44;-6.80;99.90
26745;DHT22;14342;50.960;13.880;2024-01-10T01:54:45;-6.80;99.90
26745;DHT22;14342;50.960;13.880;2024-01-10T01:55:47;-6.80;99.90
26745;DHT22;14342;50.960;13.880;2024-01-10T01:56:49;-6.80;99.90
26745;DHT22;14342;50.960;13.880;2024-01-10T01:57:50;-6.80;99.90
26745;DHT22;14342;50.960;13.880;2024-01-10T01:58:51;-6.90;99.90
26745;DHT22;14342;50.960;13.880;2024-01-10T01:59:52;-6.70;99.90
26745;DHT22;14342;50.960;13.880;2024-01-10T02:00:54;-6.90;99.90
26745;DHT22;14342;50.960;13.880;2024-01-10T02:01:54;-6.90;99.90
26745;DHT22;14342;50.960;13.880;2024-01-10T02:02:56;-6.90;99.90
26745;DHT22;14342;50.960;13.880;2024-01-10T02:03:57;-6.90;99.90
26745;DHT22;14342;50.960;13.880;2024-01-10T02:05:00;-6.90;99.90
26745;DHT22;14342;50.960;13.880;2024-01-10T02:06:01;-6.90;99.90
26745;DHT22;14342;50.960;13.880;2024-01-10T02:07:03;-6.60;99.90
26745;DHT22;14342;50.960;13.880;2024-01-10T02:08:04;-6.90;99.90
26745;DHT22;14342;50.960;13.880;2024-01-10T02:09:06;-6.90;99.90
26745;DHT22;14342;50.960;13.880;2024-01-10T02:10:07;-6.90;99.90
26745;DHT22;14342;50.960;13.880;2024-01-10T02:11:08;-6.90;99.90
26745;DHT22;14342;50.960;13.880;2024-01-10T02:12:09;-6.80;99.90
26745;DHT22;14342;50.960;13.880;2024-01-10T02:13:11;-6.80;99.90
26745;DHT22;14342;50.960;13.880;2024-01-10T02:14:12;-6.90;99.90
26745;DHT22;14342;50.960;13.880;2024-01-10T02:15:12;-6.90;99.90
26745;DHT22;14342;50.960;13.880;2024-01-10T02:16:15;-6.90;99.90
26745;DHT22;14342;50.960;13.880;2024-01-10T02:17:15;-6.90;99.90
26745;DHT22;14342;50.960;13.880;2024-01-10T02:18:17;-6.90;99.90
26745;DHT22;14342;50.960;13.880;2024-01-10T02:19:18;-6.90;99.90
26745;DHT22;14342;50.960;13.880;2024-01-10T02:20:21;-6.90;99.90
26745;DHT22;14342;50.960;13.880;2024-01-10T02:21:22;-6.90;99.90
26745;DHT22;14342;50.960;13.880;2024-01-10T02:22:24;-6.80;99.90
26745;DHT22;14342;50.960;13.880;2024-01-10T02:23:24;-6.90;99.90
26745;DHT22;14342;50.960;13.880;2024-01-10T02:24:26;-6.90;99.90
26745;DHT22;14342;50.960;13.880;2024-01-10T02:25:28;-6.90;99.90
26745;DHT22;14342;50.960;13.880;2024-01-10T02:26:30;-6.90;99.90
26745;DHT22;14342;50.960;13.880;2024-01-10T02:27:30;-7.00;99.90
26745;DHT22;14342;50.960;13.880;2024-01-10T02:28:32;-7.00;99.90
26745;DHT22;14342;50.960;13.880;2024-01-10T02:29:33;-7.00;99.90
26745;DHT22;14342;50.960;13.880;2024-01-10T02:30:35;-7.00;99.90
26745;DHT22;14342;50.960;13.880;2024-01-10T02:31:35;-7.00;99.90
26745;DHT22;14342;50.960;13.880;2024-01-10T02:32:36;-7.00;99.90
26745;DHT22;14342;50.960;13.880;2024-01-10T02:33:38;-7.00;99.90
26745;DHT22;14342;50.960;13.880;2024-01-10T02:34:39;-7.00;99.90
26745;DHT22;14342;50.960;13.880;2024-01-10T02:35:41;-7.00;99.90
26745;DHT22;14342;50.960;13.880;2024-01-10T02:36:41;-7.00;99.90
26745;DHT22;14342;50.960;13.880;2024-01-10T02:37:43;-6.70;99.90
26745;DHT22;14342;50.960;13.880;2024-01-10T02:38:43;-7.00;99.90
26745;DHT22;14342;50.960;13.880;2024-01-10T02:39:45;-7.00;99.90
26745;DHT22;14342;50.960;13.880;2024-01-10T02:40:47;-7.00;99.90
26745;DHT22;14342;50.960;13.880;2024-01-10T02:41:48;-6.90;99.90
26745;DHT22;14342;50.960;13.880;2024-01-10T02:42:49;-6.90;99.90
26745;DHT22;14342;50.960;13.880;2024-01-10T02:43:51;-7.00;99.90
26745;DHT22;14342;50.960;13.880;2024-01-10T02:44:52;-7.10;99.90
26745;DHT22;14342;50.960;13.880;2024-01-10T02:45:53;-7.10;99.90
26745;DHT22;14342;50.960;13.880;2024-01-10T02:46:53;-7.10;99.90
26745;DHT22;14342;50.960;13.880;2024-01-10T02:47:55;-7.10;99.90
26745;DHT22;14342;50.960;13.880;2024-01-10T02:48:56;-7.10;99.90
26745;DHT22;14342;50.960;13.880;2024-01-10T02:49:58;-7.10;99.90
26745;DHT22;14342;50.960;13.880;2024-01-10T02:50:58;-7.10;99.90
26745;DHT22;14342;50.960;13.880;2024-01-10T02:52:00;-7.10;99.90
26745;DHT22;14342;50.960;13.880;2024-01-10T02:53:01;-7.10;99.90
26745;DHT22;14342;50.960;13.880;2024-01-10T02:54:02;-7.10;99.90
26745;DHT22;14342;50.960;13.880;2024-01-10T02:55:03;-7.10;99.90
26745;DHT22;14342;50.960;13.880;2024-01-10T02:56:06;-7.10;99.90
26745;DHT22;14342;50.960;13.880;2024-01-10T02:57:07;-7.10;99.90
26745;DHT22;14342;50.960;13.880;2024-01-10T02:58:08;-7.10;99.90
26745;DHT22;14342;50.960;13.880;2024-01-10T02:59:09;-7.10;99.90
26745;DHT22;14342;50.960;13.880;2024-01-10T03:00:11;-7.10;99.90
26745;DHT22;14342;50.960;13.880;2024-01-10T03:01:13;-7.10;99.90
26745;DHT22;14342;50.960;13.880;2024-01-10T03:02:15;-7.20;99.90
26745;DHT22;14342;50.960;13.880;2024-01-10T03:03:15;-7.30;99.90
26745;DHT22;14342;50.960;13.880;2024-01-10T03:04:17;-7.30;99.90
26745;DHT22;14342;50.960;13.880;2024-01-10T03:05:17;-7.30;99.90
26745;DHT22;14342;50.960;13.880;2024-01-10T03:06:19;-7.10;99.90
26745;DHT22;14342;50.960;13.880;2024-01-10T03:07:20;-7.30;99.90
26745;DHT22;14342;50.960;13.880;2024-01-10T03:08:20;-7.30;99.90
26745;DHT22;14342;50.960;13.880;2024-01-10T03:09:22;-7.30;99.90
26745;DHT22;14342;50.960;13.880;2024-01-10T03:10:22;-7.30;99.90
26745;DHT22;14342;50.960;13.880;2024-01-10T03:11:25;-7.20;99.90
26745;DHT22;14342;50.960;13.880;2024-01-10T03:12:26;-7.30;99.90
26745;DHT22;14342;50.960;13.880;2024-01-10T03:13:28;-7.30;99.90
26745;DHT22;14342;50.960;13.880;2024-01-10T03:14:28;-7.30;99.90
26745;DHT22;14342;50.960;13.880;2024-01-10T03:15:30;-7.40;99.90
26745;DHT22;14342;50.960;13.880;2024-01-10T03:16:31;-7.10;99.90
26745;DHT22;14342;50.960;13.880;2024-01-10T03:17:33;-7.10;99.90
26745;DHT22;14342;50.960;13.880;2024-01-10T03:18:34;-7.40;99.90
26745;DHT22;14342;50.960;13.880;2024-01-10T03:19:35;-7.30;99.90
26745;DHT22;14342;50.960;13.880;2024-01-10T03:20:37;-7.30;99.90
26745;DHT22;14342;50.960;13.880;2024-01-10T03:21:38;-7.10;99.90
26745;DHT22;14342;50.960;13.880;2024-01-10T03:22:39;-7.30;99.90
26745;DHT22;14342;50.960;13.880;2024-01-10T03:23:40;-7.30;99.90
26745;DHT22;14342;50.960;13.880;2024-01-10T03:24:42;-7.20;99.90
26745;DHT22;14342;50.960;13.880;2024-01-10T03:25:42;-7.20;99.90
26745;DHT22;14342;50.960;13.880;2024-01-10T03:26:45;-7.20;99.90
26745;DHT22;14342;50.960;13.880;2024-01-10T03:27:46;-7.20;99.90
26745;DHT22;14342;50.960;13.880;2024-01-10T03:28:48;-7.20;99.90
26745;DHT22;14342;50.960;13.880;2024-01-10T03:29:49;-7.20;99.90
26745;DHT22;14342;50.960;13.880;2024-01-10T03:30:50;-7.20;99.90
26745;DHT22;14342;50.960;13.880;2024-01-10T03:31:51;-7.20;99.90
26745;DHT22;14342;50.960;13.880;2024-01-10T03:32:53;-7.20;99.90
26745;DHT22;14342;50.960;13.880;2024-01-10T03:33:53;-7.20;99.90
26745;DHT22;14342;50.960;13.880;2024-01-10T03:34:55;-7.20;99.90
26745;DHT22;14342;50.960;13.880;2024-01-10T03:35:55;-7.20;99.90
26745;DHT22;14342;50.960;13.880;2024-01-10T03:36:57;-7.30;99.90
26745;DHT22;14342;50.960;13.880;2024-01-10T03:37:57;-7.30;99.90
26745;DHT22;14342;50.960;13.880;2024-01-10T03:38:59;-7.40;99.90
26745;DHT22;14342;50.960;13.880;2024-01-10T03:39:59;-7.30;99.90
26745;DHT22;14342;50.960;13.880;2024-01-10T03:41:00;-7.40;99.90
26745;DHT22;14342;50.960;13.880;2024-01-10T03:42:03;-7.40;99.90
26745;DHT22;14342;50.960;13.880;2024-01-10T03:43:04;-7.40;99.90
26745;DHT22;14342;50.960;13.880;2024-01-10T03:44:04;-7.40;99.90
26745;DHT22;14342;50.960;13.880;2024-01-10T03:45:06;-7.40;99.90
26745;DHT22;14342;50.960;13.880;2024-01-10T03:46:07;-7.40;99.90
26745;DHT22;14342;50.960;13.880;2024-01-10T03:47:07;-7.50;99.90
26745;DHT22;14342;50.960;13.880;2024-01-10T03:48:09;-7.40;99.90
26745;DHT22;14342;50.960;13.880;2024-01-10T03:49:09;-7.60;99.90
26745;DHT22;14342;50.960;13.880;2024-01-10T03:50:11;-7.60;99.90
26745;DHT22;14342;50.960;13.880;2024-01-10T03:51:12;-7.60;99.90
26745;DHT22;14342;50.960;13.880;2024-01-10T03:52:12;-7.60;99.90
26745;DHT22;14342;50.960;13.880;2024-01-10T03:53:14;-7.50;99.90
26745;DHT22;14342;50.960;13.880;2024-01-10T03:54:14;-7.60;99.90
26745;DHT22;14342;50.960;13.880;2024-01-10T03:55:16;-7.60;99.90
26745;DHT22;14342;50.960;13.880;2024-01-10T03:56:17;-7.60;99.90
26745;DHT22;14342;50.960;13.880;2024-01-10T03:57:20;-7.60;99.90
26745;DHT22;14342;50.960;13.880;2024-01-10T03:58:21;-7.50;99.90
26745;DHT22;14342;50.960;13.880;2024-01-10T03:59:22;-7.40;99.90
26745;DHT22;14342;50.960;13.880;2024-01-10T04:00:23;-7.40;99.90
26745;DHT22;14342;50.960;13.880;2024-01-10T04:01:25;-7.40;99.90
26745;DHT22;14342;50.960;13.880;2024-01-10T04:02:26;-7.40;99.90
26745;DHT22;14342;50.960;13.880;2024-01-10T04:03:28;-7.10;99.90
26745;DHT22;14342;50.960;13.880;2024-01-10T04:04:29;-7.00;99.90
26745;DHT22;14342;50.960;13.880;2024-01-10T04:05:30;-7.30;99.90
26745;DHT22;14342;50.960;13.880;2024-01-10T04:06:31;-7.30;99.90
26745;DHT22;14342;50.960;13.880;2024-01-10T04:07:32;-7.30;99.90
26745;DHT22;14342;50.960;13.880;2024-01-10T04:08:33;-7.30;99.90
26745;DHT22;14342;50.960;13.880;2024-01-10T04:09:36;-6.90;99.90
26745;DHT22;14342;50.960;13.880;2024-01-10T04:10:36;-7.30;99.90
26745;DHT22;14342;50.960;13.880;2024-01-10T04:11:37;-7.40;99.90
26745;DHT22;14342;50.960;13.880;2024-01-10T04:12:40;-7.40;99.90
26745;DHT22;14342;50.960;13.880;2024-01-10T04:13:41;-7.40;99.90
26745;DHT22;14342;50.960;13.880;2024-01-10T04:14:42;-7.40;99.90
26745;DHT22;14342;50.960;13.880;2024-01-10T04:15:43;-7.50;99.90
26745;DHT22;14342;50.960;13.880;2024-01-10T04:16:45;-7.50;99.90
26745;DHT22;14342;50.960;13.880;2024-01-10T04:17:45;-7.40;99.90
26745;DHT22;14342;50.960;13.880;2024-01-10T04:18:47;-7.60;99.90
26745;DHT22;14342;50.960;13.880;2024-01-10T04:19:48;-7.60;99.90
26745;DHT22;14342;50.960;13.880;2024-01-10T04:20:50;-7.60;99.90
26745;DHT22;14342;50.960;13.880;2024-01-10T04:21:50;-7.20;99.90
26745;DHT22;14342;50.960;13.880;2024-01-10T04:22:52;-7.60;99.90
26745;DHT22;14342;50.960;13.880;2024-01-10T04:23:53;-7.40;99.90
26745;DHT22;14342;50.960;13.880;2024-01-10T04:24:56;-7.30;99.90
26745;DHT22;14342;50.960;13.880;2024-01-10T04:25:57;-7.70;99.90
26745;DHT22;14342;50.960;13.880;2024-01-10T04:26:58;-7.70;99.90
26745;DHT22;14342;50.960;13.880;2024-01-10T04:28:01;-7.60;99.90
26745;DHT22;14342;50.960;13.880;2024-01-10T04:29:02;-7.60;99.90
26745;DHT22;14342;50.960;13.880;2024-01-10T04:30:03;-7.60;99.90
26745;DHT22;14342;50.960;13.880;2024-01-10T04:31:04;-7.60;99.90
26745;DHT22;14342;50.960;13.880;2024-01-10T04:32:05;-7.70;99.90
26745;DHT22;14342;50.960;13.880;2024-01-10T04:33:06;-7.70;99.90
26745;DHT22;14342;50.960;13.880;2024-01-10T04:34:07;-7.70;99.90
26745;DHT22;14342;50.960;13.880;2024-01-10T04:35:08;-7.30;99.90
26745;DHT22;14342;50.960;13.880;2024-01-10T04:36:09;-7.60;99.90
26745;DHT22;14342;50.960;13.880;2024-01-10T04:37:10;-7.60;99.90
26745;DHT22;14342;50.960;13.880;2024-01-10T04:38:11;-7.50;99.90
26745;DHT22;14342;50.960;13.880;2024-01-10T04:39:13;-7.60;99.90
26745;DHT22;14342;50.960;13.880;2024-01-10T04:40:13;-7.60;99.90
26745;DHT22;14342;50.960;13.880;2024-01-10T04:41:15;-7.60;99.90
26745;DHT22;14342;50.960;13.880;2024-01-10T04:42:16;-7.50;99.90
26745;DHT22;14342;50.960;13.880;2024-01-10T04:43:18;-7.60;99.90
26745;DHT22;14342;50.960;13.880;2024-01-10T04:44:20;-7.60;99.90
26745;DHT22;14342;50.960;13.880;2024-01-10T04:45:21;-7.40;99.90
26745;DHT22;14342;50.960;13.880;2024-01-10T04:46:22;-7.60;99.90
26745;DHT22;14342;50.960;13.880;2024-01-10T04:47:23;-7.60;99.90
26745;DHT22;14342;50.960;13.880;2024-01-10T04:48:25;-7.60;99.90
26745;DHT22;14342;50.960;13.880;2024-01-10T04:49:26;-7.30;99.90
26745;DHT22;14342;50.960;13.880;2024-01-10T04:50:27;-7.50;99.90
26745;DHT22;14342;50.960;13.880;2024-01-10T04:51:28;-7.50;99.90
26745;DHT22;14342;50.960;13.880;2024-01-10T04:52:29;-7.50;99.90
26745;DHT22;14342;50.960;13.880;2024-01-10T04:53:32;-7.30;99.90
26745;DHT22;14342;50.960;13.880;2024-01-10T04:54:32;-7.50;99.90
26745;DHT22;14342;50.960;13.880;2024-01-10T04:55:34;-7.20;99.90
26745;DHT22;14342;50.960;13.880;2024-01-10T04:56:35;-7.40;99.90
26745;DHT22;14342;50.960;13.880;2024-01-10T04:57:37;-7.50;99.90
26745;DHT22;14342;50.960;13.880;2024-01-10T04:58:39;-7.40;99.90
26745;DHT22;14342;50.960;13.880;2024-01-10T04:59:40;-7.40;99.90
26745;DHT22;14342;50.960;13.880;2024-01-10T05:00:41;-7.20;99.90
26745;DHT22;14342;50.960;13.880;2024-01-10T05:01:42;-7.40;99.90
26745;DHT22;14342;50.960;13.880;2024-01-10T05:02:43;-7.20;99.90
26745;DHT22;14342;50.960;13.880;2024-01-10T05:03:44;-7.40;99.90
26745;DHT22;14342;50.960;13.880;2024-01-10T05:04:46;-7.10;99.90
26745;DHT22;14342;50.960;13.880;2024-01-10T05:05:47;-7.50;99.90
26745;DHT22;14342;50.960;13.880;2024-01-10T05:06:48;-7.40;99.90
26745;DHT22;14342;50.960;13.880;2024-01-10T05:07:49;-7.70;99.90
26745;DHT22;14342;50.960;13.880;2024-01-10T05:08:51;-7.50;99.90
26745;DHT22;14342;50.960;13.880;2024-01-10T05:09:52;-7.10;99.90
26745;DHT22;14342;50.960;13.880;2024-01-10T05:10:53;-7.10;99.90
26745;DHT22;14342;50.960;13.880;2024-01-10T05:11:54;-7.40;99.90
26745;DHT22;14342;50.960;13.880;2024-01-10T05:12:56;-7.10;99.90
26745;DHT22;14342;50.960;13.880;2024-01-10T05:13:58;-7.40;99.90
26745;DHT22;14342;50.960;13.880;2024-01-10T05:15:00;-7.40;99.90
26745;DHT22;14342;50.960;13.880;2024-01-10T05:16:01;-7.10;99.90
26745;DHT22;14342;50.960;13.880;2024-01-10T05:17:04;-7.40;99.90
26745;DHT22;14342;50.960;13.880;2024-01-10T05:18:04;-7.40;99.90
26745;DHT22;14342;50.960;13.880;2024-01-10T05:19:06;-7.40;99.90
26745;DHT22;14342;50.960;13.880;2024-01-10T05:20:07;-7.40;99.90
26745;DHT22;14342;50.960;13.880;2024-01-10T05:21:09;-7.50;99.90
26745;DHT22;14342;50.960;13.880;2024-01-10T05:22:10;-7.20;99.90
26745;DHT22;14342;50.960;13.880;2024-01-10T05:23:11;-7.10;99.90
26745;DHT22;14342;50.960;13.880;2024-01-10T05:24:12;-7.50;99.90
26745;DHT22;14342;50.960;13.880;2024-01-10T05:25:13;-7.40;99.90
26745;DHT22;14342;50.960;13.880;2024-01-10T05:26:14;-7.50;99.90
26745;DHT22;14342;50.960;13.880;2024-01-10T05:27:15;-7.50;99.90
26745;DHT22;14342;50.960;13.880;2024-01-10T05:28:16;-7.50;99.90
26745;DHT22;14342;50.960;13.880;2024-01-10T05:29:19;-7.50;99.90
26745;DHT22;14342;50.960;13.880;2024-01-10T05:30:22;-7.50;99.90
26745;DHT22;14342;50.960;13.880;2024-01-10T05:31:23;-7.50;99.90
26745;DHT22;14342;50.960;13.880;2024-01-10T05:32:25;-7.50;99.90
26745;DHT22;14342;50.960;13.880;2024-01-10T05:33:26;-7.50;99.90
26745;DHT22;14342;50.960;13.880;2024-01-10T05:34:27;-7.50;99.90
26745;DHT22;14342;50.960;13.880;2024-01-10T05:35:28;-7.20;99.90
26745;DHT22;14342;50.960;13.880;2024-01-10T05:36:29;-7.50;99.90
26745;DHT22;14342;50.960;13.880;2024-01-10T05:37:31;-7.50;99.90
26745;DHT22;14342;50.960;13.880;2024-01-10T05:38:31;-7.50;99.90
26745;DHT22;14342;50.960;13.880;2024-01-10T05:39:33;-7.40;99.90
26745;DHT22;14342;50.960;13.880;2024-01-10T05:40:33;-7.50;99.90
26745;DHT22;14342;50.960;13.880;2024-01-10T05:41:35;-7.50;99.90
26745;DHT22;14342;50.960;13.880;2024-01-10T05:42:36;-7.60;99.90
26745;DHT22;14342;50.960;13.880;2024-01-10T05:43:38;-7.60;99.90
26745;DHT22;14342;50.960;13.880;2024-01-10T05:44:41;-7.60;99.90
26745;DHT22;14342;50.960;13.880;2024-01-10T05:45:42;-7.60;99.90
26745;DHT22;14342;50.960;13.880;2024-01-10T05:46:44;-7.60;99.90
26745;DHT22;14342;50.960;13.880;2024-01-10T05:47:45;-7.60;99.90
26745;DHT22;14342;50.960;13.880;2024-01-10T05:48:48;-7.70;99.90
26745;DHT22;14342;50.960;13.880;2024-01-10T05:49:48;-7.40;99.90
26745;DHT22;14342;50.960;13.880;2024-01-10T05:50:50;-7.70;99.90
26745;DHT22;14342;50.960;13.880;2024-01-10T05:51:51;-7.70;99.90
26745;DHT22;14342;50.960;13.880;2024-01-10T05:52:53;-7.70;99.90
26745;DHT22;14342;50.960;13.880;2024-01-10T05:53:53;-7.80;99.90
26745;DHT22;14342;50.960;13.880;2024-01-10T05:54:54;-7.90;99.90
26745;DHT22;14342;50.960;13.880;2024-01-10T05:55:56;-7.80;99.90
26745;DHT22;14342;50.960;13.880;2024-01-10T05:56:56;-7.80;99.90
26745;DHT22;14342;50.960;13.880;2024-01-10T05:57:58;-7.60;99.90
26745;DHT22;14342;50.960;13.880;2024-01-10T05:58:59;-7.80;99.90
26745;DHT22;14342;50.960;13.880;2024-01-10T06:00:03;-7.80;99.90
26745;DHT22;14342;50.960;13.880;2024-01-10T06:01:05;-7.80;99.90
26745;DHT22;14342;50.960;13.880;2024-01-10T06:02:10;-7.80;99.90
26745;DHT22;14342;50.960;13.880;2024-01-10T06:03:11;-7.70;99.90
26745;DHT22;14342;50.960;13.880;2024-01-10T06:04:12;-7.60;99.90
26745;DHT22;14342;50.960;13.880;2024-01-10T06:05:14;-7.90;99.90
26745;DHT22;14342;50.960;13.880;2024-01-10T06:06:17;-7.90;99.90
26745;DHT22;14342;50.960;13.880;2024-01-10T06:07:17;-7.90;99.90
26745;DHT22;14342;50.960;13.880;2024-01-10T06:08:19;-7.60;99.90
26745;DHT22;14342;50.960;13.880;2024-01-10T06:09:20;-8.00;99.90
26745;DHT22;14342;50.960;13.880;2024-01-10T06:10:22;-8.00;99.90
26745;DHT22;14342;50.960;13.880;2024-01-10T06:11:23;-7.70;99.90
26745;DHT22;14342;50.960;13.880;2024-01-10T06:12:25;-8.00;99.90
26745;DHT22;14342;50.960;13.880;2024-01-10T06:13:26;-8.40;99.90
26745;DHT22;14342;50.960;13.880;2024-01-10T06:14:28;-8.10;99.90
26745;DHT22;14342;50.960;13.880;2024-01-10T06:15:30;-8.10;99.90
26745;DHT22;14342;50.960;13.880;2024-01-10T06:16:31;-8.20;99.90
26745;DHT22;14342;50.960;13.880;2024-01-10T06:17:32;-8.20;99.90
26745;DHT22;14342;50.960;13.880;2024-01-10T06:18:33;-8.20;99.90
26745;DHT22;14342;50.960;13.880;2024-01-10T06:19:34;-8.10;99.90
26745;DHT22;14342;50.960;13.880;2024-01-10T06:20:36;-7.80;99.90